Time;durP1;ratioP1;P1;durP2;ratioP2;P2;SDS_P1;SDS_P2;PMS_P1;PMS_P2;Temp;Humidity;BMP_temperature;BMP_pressure;BME280_temperature;BME280_humidity;BME280_pressure;Samples;Min_cycle;Max_cycle;Signal;HPM_P1;HPM_P2
2021/07/17 00:01:20;;;;;;;18.60;13.63;;;21.20;1.00;;;;;;5059006;28;20511;-82
2021/07/17 00:03:50;;;;;;;18.73;13.07;;;21.20;99.90;;;;;;5039290;28;20467;-82
2021/07/17 00:06:18;;;;;;;19.60;14.00;;;21.20;1.00;;;;;;5043861;28;20457;-82
2021/07/17 00:08:49;;;;;;;25.03;14.77;;;21.20;1.00;;;;;;5053924;28;20509;-82
2021/07/17 00:11:18;;;;;;;14.83;12.10;;;21.20;99.90;;;;;;5037008;28;20444;-82
2021/07/17 00:13:47;;;;;;;20.53;13.53;;;21.20;99.90;;;;;;5059838;28;20999;-84
2021/07/17 00:16:15;;;;;;;16.83;12.33;;;21.20;1.00;;;;;;5063206;28;20452;-81
2021/07/17 00:18:44;;;;;;;20.17;13.90;;;21.10;1.00;;;;;;5043078;28;20455;-81
2021/07/17 00:21:13;;;;;;;19.90;14.27;;;21.10;1.00;;;;;;5059406;28;20461;-82
2021/07/17 00:23:41;;;;;;;21.30;14.80;;;21.10;1.00;;;;;;5031740;28;20483;-82
2021/07/17 00:26:09;;;;;;;23.90;15.10;;;21.20;99.90;;;;;;5051234;28;20504;-83
2021/07/17 00:28:37;;;;;;;21.80;14.07;;;21.10;1.00;;;;;;5038838;28;20554;-81
2021/07/17 00:31:06;;;;;;;15.20;12.67;;;21.10;18.10;;;;;;5034894;28;20456;-81
2021/07/17 00:33:34;;;;;;;19.13;14.30;;;21.10;1.00;;;;;;5033318;28;20542;-82
2021/07/17 00:36:02;;;;;;;16.87;12.23;;;21.00;99.90;;;;;;5049641;28;20796;-82
2021/07/17 00:38:31;;;;;;;18.87;13.43;;;21.00;99.90;;;;;;5057374;28;20459;-82
2021/07/17 00:40:59;;;;;;;19.53;13.63;;;21.00;99.90;;;;;;5039001;28;20537;-81
2021/07/17 00:43:28;;;;;;;17.47;12.50;;;21.10;31.10;;;;;;5063026;28;20449;-81
2021/07/17 00:45:56;;;;;;;17.47;12.87;;;21.10;99.90;;;;;;5050987;28;20462;-81
2021/07/17 00:48:24;;;;;;;16.53;12.83;;;21.10;1.00;;;;;;5050669;28;20470;-81
2021/07/17 00:50:52;;;;;;;18.83;14.70;;;21.00;99.90;;;;;;5036167;28;20480;-81
2021/07/17 00:53:21;;;;;;;18.50;14.47;;;21.00;1.00;;;;;;5053532;28;20907;-81
2021/07/17 00:55:52;;;;;;;20.17;13.27;;;21.00;29.40;;;;;;5041560;28;20455;-80
2021/07/17 00:58:23;;;;;;;17.53;13.43;;;21.00;99.90;;;;;;5051087;28;20974;-81
2021/07/17 01:00:53;;;;;;;18.37;14.23;;;21.00;99.90;;;;;;5056148;28;20532;-81
2021/07/17 01:03:21;;;;;;;17.73;12.23;;;21.00;25.90;;;;;;5055592;28;20456;-82
2021/07/17 01:05:49;;;;;;;18.80;13.53;;;20.90;20.20;;;;;;5051422;28;20455;-82
2021/07/17 01:08:19;;;;;;;17.33;12.73;;;20.90;99.90;;;;;;5047487;28;20459;-81
2021/07/17 01:10:47;;;;;;;22.30;14.43;;;20.90;99.90;;;;;;5056483;28;20978;-80
2021/07/17 01:13:16;;;;;;;16.80;13.00;;;20.90;99.90;;;;;;5047035;28;20476;-82
2021/07/17 01:15:44;;;;;;;19.30;13.80;;;20.90;99.90;;;;;;5058001;28;20822;-81
2021/07/17 01:18:13;;;;;;;17.60;13.30;;;20.90;1.00;;;;;;5056100;28;20800;-82
2021/07/17 01:20:41;;;;;;;20.30;13.80;;;20.90;1.00;;;;;;5052599;28;20471;-81
2021/07/17 01:23:11;;;;;;;18.80;14.40;;;20.90;1.00;;;;;;5035043;28;20466;-82
2021/07/17 01:25:39;;;;;;;19.57;14.57;;;20.90;2.70;;;;;;5061140;28;20450;-82
2021/07/17 01:28:07;;;;;;;20.93;14.23;;;20.90;1.00;;;;;;5069024;28;20458;-82
2021/07/17 01:30:38;;;;;;;20.20;12.40;;;20.90;1.00;;;;;;5061600;28;20559;-81
2021/07/17 01:33:07;;;;;;;24.93;15.10;;;20.90;99.90;;;;;;5039565;28;20476;-82
2021/07/17 01:35:36;;;;;;;23.63;15.93;;;20.80;99.90;;;;;;5052276;28;20458;-82
2021/07/17 01:38:05;;;;;;;18.37;14.03;;;20.90;99.90;;;;;;5055211;28;21090;-82
2021/07/17 01:40:35;;;;;;;22.40;13.10;;;20.90;99.90;;;;;;5054308;28;20462;-81
2021/07/17 01:43:04;;;;;;;21.70;13.40;;;20.90;1.00;;;;;;5031210;28;20443;-82
2021/07/17 01:45:38;;;;;;;16.47;12.20;;;20.90;1.00;;;;;;5049259;28;20882;-83
2021/07/17 01:48:07;;;;;;;18.10;13.93;;;20.90;99.90;;;;;;5043523;28;20550;-82
2021/07/17 01:50:36;;;;;;;20.77;12.73;;;20.80;99.90;;;;;;5057952;28;20475;-81
2021/07/17 01:53:05;;;;;;;19.47;13.30;;;20.90;99.90;;;;;;5047265;28;20478;-81
2021/07/17 01:55:35;;;;;;;19.70;13.87;;;20.90;1.00;;;;;;5050652;28;20513;-81
2021/07/17 01:58:04;;;;;;;20.27;13.00;;;20.80;99.90;;;;;;5054086;28;20589;-81
2021/07/17 02:00:32;;;;;;;20.63;13.40;;;20.80;91.90;;;;;;5055312;28;20479;-81
2021/07/17 02:03:00;;;;;;;17.57;12.10;;;20.80;99.90;;;;;;5057268;28;20787;-82
2021/07/17 02:05:29;;;;;;;16.87;12.80;;;20.80;99.90;;;;;;5054758;28;20951;-83
2021/07/17 02:07:59;;;;;;;19.13;12.40;;;20.80;99.90;;;;;;5033770;28;20470;-81
2021/07/17 02:10:31;;;;;;;15.77;11.70;;;20.80;99.90;;;;;;5040683;28;20475;-81
2021/07/17 02:13:02;;;;;;;16.63;11.83;;;20.80;99.90;;;;;;5038951;28;20484;-81
2021/07/17 02:15:32;;;;;;;17.23;11.93;;;20.80;99.90;;;;;;5060283;28;20459;-82
2021/07/17 02:18:02;;;;;;;18.33;13.47;;;20.80;99.90;;;;;;5052147;28;20467;-81
2021/07/17 02:20:30;;;;;;;19.80;13.10;;;20.80;1.00;;;;;;5055377;28;20472;-85
2021/07/17 02:22:58;;;;;;;19.47;13.63;;;20.70;99.90;;;;;;5052686;28;20541;-82
2021/07/17 02:25:27;;;;;;;14.47;11.13;;;20.70;99.90;;;;;;5063387;28;20455;-82
2021/07/17 02:27:55;;;;;;;18.13;13.10;;;20.80;99.90;;;;;;5062827;28;20509;-81
2021/07/17 02:30:24;;;;;;;17.33;12.17;;;20.80;82.00;;;;;;5067328;28;21047;-82
2021/07/17 02:32:52;;;;;;;18.43;12.63;;;20.80;76.70;;;;;;5052198;28;20482;-83
2021/07/17 02:35:21;;;;;;;18.40;12.57;;;20.80;99.90;;;;;;5026830;28;20841;-82
2021/07/17 02:37:49;;;;;;;15.33;11.57;;;20.70;1.00;;;;;;5043799;28;20455;-82
2021/07/17 02:40:17;;;;;;;20.33;14.10;;;20.70;99.90;;;;;;5055950;28;21059;-82
2021/07/17 02:42:45;;;;;;;19.17;13.93;;;20.70;1.00;;;;;;5044181;28;21252;-82
2021/07/17 02:45:14;;;;;;;22.03;13.10;;;20.70;99.90;;;;;;5063999;28;20712;-82
2021/07/17 02:47:43;;;;;;;17.30;12.47;;;20.70;11.10;;;;;;5039769;28;20455;-82
2021/07/17 02:50:12;;;;;;;16.40;12.53;;;20.70;42.10;;;;;;5062287;28;20474;-81
2021/07/17 02:52:41;;;;;;;18.20;14.10;;;20.70;1.00;;;;;;5071577;28;20504;-81
2021/07/17 02:55:10;;;;;;;20.03;13.70;;;20.60;1.00;;;;;;5060471;28;20467;-80
2021/07/17 02:57:38;;;;;;;18.30;13.30;;;20.70;1.00;;;;;;5036782;28;20963;-82
2021/07/17 03:00:09;;;;;;;16.20;12.30;;;20.60;99.90;;;;;;5063577;28;20480;-82
2021/07/17 03:02:38;;;;;;;20.10;13.77;;;20.60;74.60;;;;;;5059042;28;20448;-81
2021/07/17 03:05:09;;;;;;;17.97;12.10;;;20.70;1.00;;;;;;5053907;28;20450;-82
2021/07/17 03:07:37;;;;;;;18.90;14.13;;;20.70;1.00;;;;;;5039830;28;20463;-82
2021/07/17 03:10:06;;;;;;;21.40;15.03;;;20.70;1.00;;;;;;5053181;28;20548;-81
2021/07/17 03:12:34;;;;;;;22.73;13.77;;;20.60;99.90;;;;;;5050360;28;20443;-82
2021/07/17 03:15:02;;;;;;;17.97;13.97;;;20.60;99.90;;;;;;5037168;28;20559;-83
2021/07/17 03:17:31;;;;;;;23.23;15.87;;;20.60;1.00;;;;;;5047438;28;20463;-81
2021/07/17 03:19:59;;;;;;;19.03;12.73;;;20.60;1.00;;;;;;5060901;28;21108;-82
2021/07/17 03:22:28;;;;;;;18.73;13.60;;;20.60;1.00;;;;;;5036971;28;20501;-82
2021/07/17 03:24:56;;;;;;;19.53;13.70;;;20.50;99.90;;;;;;5046825;28;20449;-82
2021/07/17 03:27:24;;;;;;;16.80;12.13;;;20.50;99.90;;;;;;5050312;28;20447;-82
2021/07/17 03:29:52;;;;;;;15.30;12.67;;;20.60;1.00;;;;;;5052731;28;20533;-81
2021/07/17 03:32:26;;;;;;;16.23;12.50;;;20.60;1.00;;;;;;5049226;28;20455;-81
2021/07/17 03:34:55;;;;;;;14.23;12.00;;;20.60;97.00;;;;;;5049663;28;20468;-82
2021/07/17 03:37:23;;;;;;;15.63;12.30;;;20.50;99.90;;;;;;5047167;28;20444;-82
2021/07/17 03:39:53;;;;;;;18.80;15.03;;;20.50;1.00;;;;;;5055522;28;20506;-82
2021/07/17 03:42:21;;;;;;;18.07;14.23;;;20.50;1.00;;;;;;5058865;28;20974;-82
2021/07/17 03:44:49;;;;;;;19.80;13.43;;;20.50;1.00;;;;;;5057282;28;20554;-81
2021/07/17 03:47:17;;;;;;;18.43;13.23;;;20.50;1.00;;;;;;5058568;28;20444;-81
2021/07/17 03:49:45;;;;;;;21.50;14.87;;;20.50;1.00;;;;;;5036731;28;20482;-82
2021/07/17 03:52:14;;;;;;;15.80;11.30;;;20.50;99.90;;;;;;5044930;28;20833;-81
2021/07/17 03:54:42;;;;;;;17.40;13.03;;;20.50;1.00;;;;;;5058046;28;20835;-80
2021/07/17 03:57:12;;;;;;;17.67;11.77;;;20.50;33.10;;;;;;5059263;28;20581;-80
2021/07/17 03:59:41;;;;;;;19.07;12.57;;;20.50;41.10;;;;;;5047053;28;20459;-81
2021/07/17 04:02:10;;;;;;;18.83;13.43;;;20.40;99.90;;;;;;5034653;28;20833;-80
2021/07/17 04:05:03;;;;;;;15.10;11.80;;;20.40;27.20;;;;;;5045960;28;20454;-78
2021/07/17 04:07:31;;;;;;;16.40;11.93;;;20.50;99.90;;;;;;5054876;28;20989;-80
2021/07/17 04:10:00;;;;;;;17.37;12.07;;;20.40;1.00;;;;;;5049321;28;20490;-79
2021/07/17 04:12:30;;;;;;;17.10;11.60;;;20.50;99.90;;;;;;5061619;28;20795;-79
2021/07/17 04:14:58;;;;;;;18.13;12.13;;;20.40;1.00;;;;;;5031109;28;20479;-80
2021/07/17 04:17:26;;;;;;;24.70;13.37;;;20.30;99.90;;;;;;5051863;28;20494;-80
2021/07/17 04:19:54;;;;;;;16.40;12.87;;;20.20;75.90;;;;;;5061351;28;20847;-80
2021/07/17 04:22:23;;;;;;;14.60;12.00;;;20.20;1.00;;;;;;5057385;28;20435;-81
2021/07/17 04:24:51;;;;;;;14.73;12.60;;;20.20;66.40;;;;;;5028332;28;20551;-80
2021/07/17 04:27:19;;;;;;;16.93;11.93;;;20.20;99.90;;;;;;5029218;28;20570;-79
2021/07/17 04:29:49;;;;;;;17.97;12.77;;;20.20;98.50;;;;;;5054550;28;20504;-80
2021/07/17 04:32:17;;;;;;;17.50;12.17;;;20.20;1.00;;;;;;5055032;28;20825;-80
2021/07/17 04:34:45;;;;;;;18.37;13.00;;;20.20;70.60;;;;;;5048295;28;21005;-80
2021/07/17 04:37:16;;;;;;;15.17;12.23;;;20.20;99.90;;;;;;5045855;28;20448;-79
2021/07/17 04:39:45;;;;;;;19.03;14.40;;;20.30;1.00;;;;;;5031193;28;21031;-80
2021/07/17 04:42:13;;;;;;;29.50;14.70;;;20.30;94.50;;;;;;5051511;28;20513;-80
2021/07/17 04:44:41;;;;;;;18.87;13.33;;;20.30;1.00;;;;;;5054481;28;20455;-80
2021/07/17 04:47:11;;;;;;;18.13;12.97;;;20.30;99.90;;;;;;5035704;28;20454;-81
2021/07/17 04:49:39;;;;;;;19.17;13.63;;;20.30;1.00;;;;;;5043481;28;20570;-80
2021/07/17 04:52:07;;;;;;;17.60;13.07;;;20.40;1.00;;;;;;5044903;28;20458;-80
2021/07/17 04:54:35;;;;;;;20.17;13.03;;;20.30;1.00;;;;;;5046299;28;20472;-81
2021/07/17 04:57:04;;;;;;;17.57;12.37;;;20.30;1.00;;;;;;5052698;28;20872;-81
2021/07/17 04:59:32;;;;;;;17.77;12.37;;;20.30;23.50;;;;;;5061376;28;20974;-79
2021/07/17 05:02:00;;;;;;;17.17;12.20;;;20.30;99.90;;;;;;5060710;28;20493;-79
2021/07/17 05:04:30;;;;;;;17.23;11.43;;;20.30;1.00;;;;;;5027070;28;20535;-81
2021/07/17 05:06:59;;;;;;;19.07;12.30;;;20.30;1.00;;;;;;5049860;28;20489;-79
2021/07/17 05:09:27;;;;;;;20.80;14.00;;;20.30;99.90;;;;;;5062598;28;20479;-80
2021/07/17 05:11:55;;;;;;;17.20;12.93;;;20.40;1.00;;;;;;5053110;28;20454;-80
2021/07/17 05:14:24;;;;;;;17.03;12.03;;;20.40;1.00;;;;;;5055232;28;20459;-80
2021/07/17 05:16:52;;;;;;;18.97;13.17;;;20.40;1.00;;;;;;5032518;28;20475;-81
2021/07/17 05:19:20;;;;;;;16.53;11.37;;;20.40;99.90;;;;;;5049737;28;20509;-82
2021/07/17 05:21:49;;;;;;;17.13;13.00;;;20.40;99.90;;;;;;5050027;28;20455;-81
2021/07/17 05:24:18;;;;;;;22.33;12.80;;;20.30;7.40;;;;;;5054014;28;20455;-78
2021/07/17 05:26:47;;;;;;;21.33;13.47;;;20.30;1.00;;;;;;5043963;28;20447;-78
2021/07/17 05:29:15;;;;;;;14.47;12.07;;;20.30;1.00;;;;;;5061173;28;21004;-78
2021/07/17 05:31:43;;;;;;;16.10;12.33;;;20.40;99.90;;;;;;5049283;28;20447;-77
2021/07/17 05:34:11;;;;;;;17.47;12.90;;;20.30;38.00;;;;;;5051048;28;20478;-78
2021/07/17 05:36:39;;;;;;;18.57;11.90;;;20.40;99.90;;;;;;5047817;28;20966;-81
2021/07/17 05:39:09;;;;;;;19.77;12.37;;;20.30;1.00;;;;;;5049980;28;20558;-79
2021/07/17 05:41:38;;;;;;;19.07;12.90;;;20.30;99.90;;;;;;5048202;28;20525;-79
2021/07/17 05:44:06;;;;;;;18.67;12.60;;;20.30;1.00;;;;;;5067132;28;20492;-81
2021/07/17 05:46:34;;;;;;;18.17;12.57;;;20.30;1.00;;;;;;5047556;28;20516;-79
2021/07/17 05:49:03;;;;;;;18.00;12.17;;;20.30;99.90;;;;;;5034414;28;20486;-78
2021/07/17 05:51:31;;;;;;;16.03;11.87;;;20.20;99.90;;;;;;5058290;28;20524;-79
2021/07/17 05:53:59;;;;;;;16.67;11.70;;;20.20;99.90;;;;;;5052324;28;20519;-80
2021/07/17 05:56:28;;;;;;;19.60;11.60;;;20.30;1.00;;;;;;5043736;28;20895;-80
2021/07/17 05:58:57;;;;;;;17.50;12.20;;;20.30;99.90;;;;;;5057782;28;20454;-78
2021/07/17 06:01:25;;;;;;;14.47;11.60;;;20.20;1.00;;;;;;5054197;28;20512;-79
2021/07/17 06:03:53;;;;;;;19.47;12.20;;;20.30;1.00;;;;;;5041930;28;20588;-81
2021/07/17 06:06:21;;;;;;;16.70;11.87;;;20.30;1.00;;;;;;5052611;28;20456;-80
2021/07/17 06:08:49;;;;;;;15.90;12.27;;;20.30;99.90;;;;;;5056826;28;20444;-79
2021/07/17 06:11:17;;;;;;;20.93;12.60;;;20.30;99.90;;;;;;5054869;28;20543;-79
2021/07/17 06:13:47;;;;;;;15.80;11.83;;;20.20;1.00;;;;;;5056427;28;20470;-81
2021/07/17 06:16:15;;;;;;;14.13;11.40;;;20.30;1.00;;;;;;5067180;28;20470;-79
2021/07/17 06:18:43;;;;;;;13.13;10.10;;;20.30;1.00;;;;;;5058572;28;20451;-77
2021/07/17 06:21:11;;;;;;;14.30;10.87;;;20.30;1.00;;;;;;5050499;28;20496;-79
2021/07/17 06:23:40;;;;;;;13.70;10.73;;;20.40;99.90;;;;;;5053785;28;20966;-80
2021/07/17 06:26:08;;;;;;;22.87;11.90;;;20.30;1.00;;;;;;5039969;28;20440;-81
2021/07/17 06:28:36;;;;;;;13.00;10.33;;;20.30;99.90;;;;;;5051399;28;20967;-81
2021/07/17 06:31:06;;;;;;;11.83;10.47;;;20.40;99.90;;;;;;5045417;28;20971;-84
2021/07/17 06:33:35;;;;;;;15.97;11.70;;;20.50;99.90;;;;;;5039995;28;20505;-80
2021/07/17 06:36:03;;;;;;;12.17;10.53;;;20.40;1.00;;;;;;5034472;28;20468;-78
2021/07/17 06:38:31;;;;;;;15.43;10.83;;;20.40;22.50;;;;;;5049500;28;20520;-78
2021/07/17 06:40:59;;;;;;;13.40;9.87;;;20.40;99.90;;;;;;5050118;28;20478;-80
2021/07/17 06:43:27;;;;;;;14.23;10.80;;;20.40;1.00;;;;;;5048703;28;20985;-79
2021/07/17 06:45:55;;;;;;;16.13;10.20;;;20.40;1.00;;;;;;5052582;28;20456;-79
2021/07/17 06:48:25;;;;;;;14.13;10.40;;;20.50;99.90;;;;;;5053218;28;20451;-79
2021/07/17 06:50:53;;;;;;;16.10;11.03;;;20.40;1.00;;;;;;5068585;28;20478;-80
2021/07/17 06:53:21;;;;;;;13.83;10.20;;;20.30;99.90;;;;;;5052159;28;20498;-81
2021/07/17 06:55:49;;;;;;;13.30;11.20;;;20.30;99.90;;;;;;5056115;28;20483;-81
2021/07/17 06:58:17;;;;;;;19.30;11.63;;;20.40;99.90;;;;;;5050754;28;20498;-79
2021/07/17 07:00:46;;;;;;;16.37;11.43;;;20.50;1.00;;;;;;5052877;28;20994;-80
2021/07/17 07:03:14;;;;;;;17.80;11.27;;;20.40;1.00;;;;;;5034331;28;20447;-81
2021/07/17 07:05:44;;;;;;;20.63;11.73;;;20.50;99.90;;;;;;5064195;28;20538;-79
2021/07/17 07:08:16;;;;;;;157.57;65.70;;;20.40;1.00;;;;;;5053720;28;20471;-79
2021/07/17 07:10:44;;;;;;;211.37;69.13;;;20.40;99.90;;;;;;5055260;28;20467;-80
2021/07/17 07:13:14;;;;;;;40.20;21.00;;;20.40;1.00;;;;;;5048737;28;20458;-79
2021/07/17 07:15:43;;;;;;;24.07;15.23;;;20.40;1.00;;;;;;5055753;28;20517;-79
2021/07/17 07:18:13;;;;;;;21.93;12.00;;;20.40;1.00;;;;;;5049989;28;20539;-79
2021/07/17 07:20:43;;;;;;;17.37;11.37;;;20.40;1.00;;;;;;5053364;28;20471;-80
2021/07/17 07:23:12;;;;;;;15.03;13.20;;;20.40;1.00;;;;;;5063235;28;20469;-79
2021/07/17 07:25:41;;;;;;;12.77;11.10;;;20.40;1.00;;;;;;5034556;28;20527;-80
2021/07/17 07:28:12;;;;;;;15.60;11.53;;;20.50;99.90;;;;;;5052565;28;20447;-79
2021/07/17 07:30:40;;;;;;;15.83;11.17;;;20.50;1.00;;;;;;5034278;28;20483;-79
2021/07/17 07:33:08;;;;;;;18.20;12.20;;;20.50;1.00;;;;;;5053508;28;20458;-81
2021/07/17 07:35:37;;;;;;;14.97;12.50;;;20.50;1.00;;;;;;5064368;28;20451;-84
2021/07/17 07:38:06;;;;;;;19.23;13.30;;;20.50;1.00;;;;;;5057522;28;20992;-80
2021/07/17 07:40:34;;;;;;;19.60;12.80;;;20.50;1.00;;;;;;5053164;28;21014;-82
2021/07/17 07:43:03;;;;;;;14.43;12.50;;;20.50;1.00;;;;;;5065693;28;21023;-81
2021/07/17 07:45:31;;;;;;;15.53;11.00;;;20.50;1.00;;;;;;5040361;28;20461;-80
2021/07/17 07:47:59;;;;;;;16.50;10.80;;;20.50;1.00;;;;;;5059239;28;20483;-80
2021/07/17 07:50:27;;;;;;;18.20;13.30;;;20.60;1.00;;;;;;5045766;28;21013;-81
2021/07/17 07:52:56;;;;;;;15.67;11.23;;;20.60;99.90;;;;;;5062404;28;20992;-80
2021/07/17 07:55:25;;;;;;;16.47;12.03;;;20.60;99.90;;;;;;5057690;28;20452;-80
2021/07/17 07:57:53;;;;;;;17.40;13.77;;;20.60;1.00;;;;;;5054049;28;21018;-80
2021/07/17 08:00:21;;;;;;;18.93;13.10;;;20.60;1.00;;;;;;5055306;28;20507;-81
2021/07/17 08:02:52;;;;;;;16.90;11.90;;;20.60;1.00;;;;;;5048809;28;20466;-80
2021/07/17 08:05:21;;;;;;;19.47;12.57;;;20.60;1.00;;;;;;5034627;28;20465;-80
2021/07/17 08:07:49;;;;;;;13.07;11.67;;;20.60;1.00;;;;;;5051756;28;20448;-81
2021/07/17 08:10:17;;;;;;;15.30;13.20;;;20.60;99.90;;;;;;5051232;28;20495;-80
2021/07/17 08:12:47;;;;;;;19.47;13.60;;;20.60;99.90;;;;;;5061953;28;20566;-81
2021/07/17 08:15:15;;;;;;;15.53;11.50;;;20.60;99.90;;;;;;5066120;28;20522;-80
2021/07/17 08:17:44;;;;;;;15.17;12.30;;;20.60;99.90;;;;;;5043628;28;20471;-81
2021/07/17 08:20:13;;;;;;;15.23;11.90;;;20.60;99.90;;;;;;5033467;28;20464;-80
2021/07/17 08:22:42;;;;;;;16.73;12.00;;;20.60;1.00;;;;;;5057934;28;20448;-80
2021/07/17 08:25:11;;;;;;;17.33;12.10;;;20.60;1.00;;;;;;5061877;28;20495;-81
2021/07/17 08:27:41;;;;;;;17.73;12.40;;;20.60;1.00;;;;;;5060205;28;20444;-80
2021/07/17 08:30:12;;;;;;;16.50;12.30;;;20.50;1.00;;;;;;5045436;28;20494;-81
2021/07/17 08:32:58;;;;;;;15.97;11.90;;;20.50;99.90;;;;;;5048744;28;20449;-79
2021/07/17 08:35:26;;;;;;;18.43;11.90;;;20.60;1.00;;;;;;5062772;28;20483;-81
2021/07/17 08:37:54;;;;;;;14.17;12.10;;;20.50;99.90;;;;;;5057423;28;20466;-80
2021/07/17 08:40:23;;;;;;;19.10;12.33;;;20.50;99.90;;;;;;5058776;28;20501;-81
2021/07/17 08:42:52;;;;;;;17.67;12.03;;;20.60;99.90;;;;;;5038149;28;20464;-81
2021/07/17 08:45:23;;;;;;;20.07;12.40;;;20.60;99.90;;;;;;5046856;28;20456;-81
2021/07/17 08:47:52;;;;;;;19.33;12.13;;;20.60;99.90;;;;;;5033856;28;20716;-82
2021/07/17 08:50:23;;;;;;;16.40;12.00;;;20.70;99.90;;;;;;5058018;28;20462;-80
2021/07/17 08:52:53;;;;;;;16.87;12.07;;;20.70;99.90;;;;;;5051588;28;20457;-80
2021/07/17 08:55:21;;;;;;;16.80;12.60;;;20.70;99.90;;;;;;5038249;28;20509;-82
2021/07/17 08:57:50;;;;;;;16.57;11.77;;;20.70;99.90;;;;;;5050405;28;21021;-80
2021/07/17 09:00:21;;;;;;;16.33;12.20;;;20.70;99.90;;;;;;5051080;28;20977;-78
2021/07/17 09:02:53;;;;;;;13.10;10.00;;;20.70;99.90;;;;;;5067585;28;20480;-81
2021/07/17 09:05:23;;;;;;;18.87;12.10;;;20.70;23.80;;;;;;5057983;28;20467;-78
2021/07/17 09:07:51;;;;;;;19.47;11.63;;;20.70;80.90;;;;;;5042056;28;20445;-80
2021/07/17 09:10:32;;;;;;;15.33;11.20;;;20.70;99.90;;;;;;5042620;28;20515;-83
2021/07/17 09:13:15;;;;;;;16.17;11.00;;;20.80;1.00;;;;;;5052576;28;20906;-81
2021/07/17 09:15:58;;;;;;;16.50;11.90;;;20.80;1.00;;;;;;5049385;28;20490;-77
2021/07/17 09:18:38;;;;;;;16.17;13.70;;;20.90;1.00;;;;;;5049891;28;20489;-79
2021/07/17 09:21:09;;;;;;;28.47;15.20;;;20.90;80.40;;;;;;5051607;28;20509;-77
2021/07/17 09:23:39;;;;;;;18.77;13.33;;;21.00;99.90;;;;;;5033212;28;21121;-78
2021/07/17 09:26:14;;;;;;;24.90;13.33;;;21.00;1.00;;;;;;5050508;28;20451;-77
2021/07/17 09:28:42;;;;;;;17.23;13.33;;;21.00;99.90;;;;;;5046479;28;20440;-79
2021/07/17 09:31:12;;;;;;;21.73;14.43;;;20.90;1.00;;;;;;5036686;28;20459;-78
2021/07/17 09:33:40;;;;;;;18.80;12.83;;;21.00;99.90;;;;;;5053686;28;20506;-79
2021/07/17 09:36:15;;;;;;;17.30;12.53;;;21.10;99.90;;;;;;5053396;28;20450;-77
2021/07/17 09:38:50;;;;;;;17.90;12.00;;;21.00;99.90;;;;;;5051858;28;20545;-74
2021/07/17 09:41:20;;;;;;;15.63;12.40;;;21.10;1.00;;;;;;5052576;28;20817;-80
2021/07/17 09:44:00;;;;;;;15.17;11.77;;;21.10;99.90;;;;;;5059423;28;20453;-77
2021/07/17 09:46:31;;;;;;;17.27;12.30;;;21.10;99.90;;;;;;5038482;28;20454;-80
2021/07/17 09:49:01;;;;;;;17.60;12.70;;;21.10;1.00;;;;;;5042676;28;20468;-76
2021/07/17 09:51:31;;;;;;;18.27;12.83;;;21.00;1.00;;;;;;5053072;28;20484;-77
2021/07/17 09:54:00;;;;;;;15.63;11.80;;;21.00;1.00;;;;;;5054934;28;20431;-78
2021/07/17 09:56:31;;;;;;;19.40;12.77;;;21.10;24.80;;;;;;5028388;28;20454;-77
2021/07/17 09:59:00;;;;;;;16.00;12.70;;;21.20;12.10;;;;;;5049794;28;20512;-77
2021/07/17 10:01:33;;;;;;;19.87;12.77;;;21.20;99.90;;;;;;5050041;28;20443;-80
2021/07/17 10:04:04;;;;;;;17.80;13.00;;;21.20;99.90;;;;;;5054535;28;20878;-77
2021/07/17 10:06:41;;;;;;;15.87;12.33;;;21.30;99.90;;;;;;5053535;28;20996;-80
2021/07/17 10:09:29;;;;;;;21.90;13.90;;;21.30;1.00;;;;;;5045235;28;20479;-79
2021/07/17 10:12:03;;;;;;;18.83;13.70;;;21.40;1.00;;;;;;5036821;28;20463;-82
2021/07/17 10:14:35;;;;;;;14.90;13.27;;;21.40;98.90;;;;;;5053199;28;20457;-77
2021/07/17 10:17:07;;;;;;;20.60;12.60;;;21.40;99.90;;;;;;5035472;28;20455;-77
2021/07/17 10:19:37;;;;;;;20.53;12.57;;;21.40;99.90;;;;;;5034820;28;20474;-77
2021/07/17 10:22:06;;;;;;;19.43;13.53;;;21.40;97.60;;;;;;5051161;28;20983;-80
2021/07/17 10:24:35;;;;;;;17.57;12.87;;;21.50;99.90;;;;;;5047236;28;20486;-77
2021/07/17 10:27:05;;;;;;;15.70;11.47;;;21.50;99.90;;;;;;5053242;28;20458;-83
2021/07/17 10:29:34;;;;;;;16.13;12.83;;;21.50;99.90;;;;;;5053147;28;20564;-78
2021/07/17 10:32:02;;;;;;;15.80;12.20;;;21.50;99.90;;;;;;5036087;28;20841;-77
2021/07/17 10:34:32;;;;;;;17.00;12.13;;;21.50;1.00;;;;;;5053297;28;20448;-79
2021/07/17 10:37:03;;;;;;;17.73;12.17;;;21.60;99.90;;;;;;5051016;28;20535;-79
2021/07/17 10:39:34;;;;;;;14.00;12.43;;;21.70;1.00;;;;;;5049386;28;20762;-79
2021/07/17 10:42:10;;;;;;;15.53;12.03;;;21.70;1.00;;;;;;5048636;28;20449;-80
2021/07/17 10:44:46;;;;;;;20.00;12.07;;;21.70;99.90;;;;;;5040584;28;20984;-82
2021/07/17 10:47:16;;;;;;;17.13;11.80;;;21.70;99.90;;;;;;5048067;28;20540;-77
2021/07/17 10:49:47;;;;;;;15.63;12.83;;;21.70;1.00;;;;;;5039934;28;20464;-82
2021/07/17 10:52:16;;;;;;;16.23;11.03;;;21.70;1.00;;;;;;5043258;28;21079;-77
2021/07/17 10:54:44;;;;;;;15.57;11.60;;;21.70;99.90;;;;;;5048837;28;20448;-76
2021/07/17 10:57:12;;;;;;;17.57;11.87;;;21.70;1.00;;;;;;5049334;28;20943;-78
2021/07/17 10:59:45;;;;;;;16.23;12.60;;;21.80;25.80;;;;;;5051544;28;20545;-77
2021/07/17 11:02:15;;;;;;;16.50;12.27;;;21.70;99.90;;;;;;5051174;28;20497;-77
2021/07/17 11:04:51;;;;;;;17.93;12.23;;;21.70;99.90;;;;;;5044648;28;20451;-75
2021/07/17 11:07:33;;;;;;;17.43;13.33;;;21.80;1.00;;;;;;5047338;28;20450;-79
2021/07/17 11:10:19;;;;;;;16.67;11.77;;;21.70;1.00;;;;;;5033391;28;20536;-77
2021/07/17 11:12:54;;;;;;;16.67;12.37;;;21.70;99.90;;;;;;5049583;28;20473;-79
2021/07/17 11:15:40;;;;;;;13.33;11.20;;;21.70;99.90;;;;;;5046351;28;20529;-82
2021/07/17 11:18:32;;;;;;;18.87;11.70;;;21.70;99.90;;;;;;5041586;28;20477;-78
2021/07/17 11:21:09;;;;;;;18.90;13.00;;;21.70;99.90;;;;;;5030095;28;21045;-75
2021/07/17 11:23:42;;;;;;;17.30;12.83;;;21.70;1.00;;;;;;5043782;28;20522;-77
2021/07/17 11:26:20;;;;;;;18.93;13.37;;;21.70;1.00;;;;;;5045368;28;20462;-77
2021/07/17 11:29:05;;;;;;;15.17;12.17;;;21.70;99.90;;;;;;5051934;28;20444;-78
2021/07/17 11:31:53;;;;;;;19.77;13.73;;;21.80;99.90;;;;;;5048178;28;20461;-80
2021/07/17 11:34:41;;;;;;;17.03;12.90;;;21.70;1.00;;;;;;5040850;28;20462;-79
2021/07/17 11:37:20;;;;;;;17.70;12.90;;;21.60;1.00;;;;;;5026198;28;20456;-79
2021/07/17 11:39:50;;;;;;;16.00;13.03;;;21.60;1.00;;;;;;5049572;28;20515;-80
2021/07/17 11:42:20;;;;;;;17.13;12.73;;;21.60;99.90;;;;;;5036340;28;20466;-78
2021/07/17 11:44:51;;;;;;;17.23;14.30;;;21.60;1.00;;;;;;5047373;28;20462;-79
2021/07/17 11:47:21;;;;;;;17.80;13.53;;;21.60;1.00;;;;;;5046444;28;20454;-79
2021/07/17 11:49:52;;;;;;;17.90;12.63;;;21.60;99.90;;;;;;5049430;28;20852;-79
2021/07/17 11:52:25;;;;;;;17.03;13.10;;;21.60;30.60;;;;;;5043341;28;20543;-79
2021/07/17 11:54:55;;;;;;;14.90;11.90;;;21.70;99.90;;;;;;5048985;28;20472;-79
2021/07/17 11:57:25;;;;;;;12.40;11.20;;;21.70;99.90;;;;;;5048954;28;20440;-79
2021/07/17 12:00:04;;;;;;;16.93;13.27;;;21.80;99.90;;;;;;5050979;28;20838;-80
2021/07/17 12:02:34;;;;;;;17.37;12.87;;;21.70;1.00;;;;;;5030380;28;20951;-80
2021/07/17 12:05:06;;;;;;;15.37;11.60;;;21.70;91.10;;;;;;5030995;28;20479;-80
2021/07/17 12:07:38;;;;;;;14.50;12.83;;;21.80;99.90;;;;;;5050049;28;20534;-80
2021/07/17 12:10:08;;;;;;;16.50;12.73;;;21.80;99.90;;;;;;5049435;28;20831;-79
2021/07/17 12:12:39;;;;;;;15.27;11.80;;;21.80;99.90;;;;;;5051258;28;20446;-78
2021/07/17 12:15:11;;;;;;;14.03;10.90;;;21.70;33.00;;;;;;5049325;28;20970;-79
2021/07/17 12:17:41;;;;;;;17.17;12.33;;;21.80;1.00;;;;;;5047203;28;20474;-80
2021/07/17 12:20:17;;;;;;;18.43;12.80;;;21.90;99.90;;;;;;5049725;28;20483;-79
2021/07/17 12:22:49;;;;;;;14.37;11.80;;;21.80;1.00;;;;;;5036334;28;20450;-77
2021/07/17 12:25:20;;;;;;;15.30;13.70;;;21.80;99.90;;;;;;5047988;28;20989;-79
2021/07/17 12:27:56;;;;;;;15.30;13.70;;;21.80;99.90;;;;;;5050508;28;20968;-79
2021/07/17 12:30:27;;;;;;;17.13;12.80;;;21.90;99.90;;;;;;5048952;28;20489;-79
2021/07/17 12:33:19;;;;;;;16.57;13.43;;;21.90;1.00;;;;;;5047060;28;20498;-78
2021/07/17 12:35:49;;;;;;;16.57;13.90;;;21.90;1.00;;;;;;5049252;28;20443;-78
2021/07/17 12:38:24;;;;;;;16.50;13.13;;;21.90;99.90;;;;;;5050196;28;20470;-79
2021/07/17 12:40:55;;;;;;;20.40;13.10;;;21.90;1.00;;;;;;5030902;28;21063;-75
2021/07/17 12:43:26;;;;;;;17.80;14.60;;;22.00;99.90;;;;;;5031655;28;20451;-80
2021/07/17 12:46:05;;;;;;;15.13;12.83;;;21.90;99.90;;;;;;5045905;28;20459;-79